sensor_id;sensor_type;location;lat;lon;timestamp;P1;durP1;ratioP1;P2;durP2;ratioP2
31836;SDS011;18401;49.344;6.240;2024-02-26T00:02:22;3.72;;;1.00;;
31836;SDS011;18401;49.344;6.240;2024-02-26T00:04:48;1.20;;;1.10;;
31836;SDS011;18401;49.344;6.240;2024-02-26T00:07:16;1.23;;;0.82;;
31836;SDS011;18401;49.344;6.240;2024-02-26T00:09:42;1.70;;;1.33;;
31836;SDS011;18401;49.344;6.240;2024-02-26T00:12:07;2.17;;;1.33;;
31836;SDS011;18401;49.344;6.240;2024-02-26T00:14:33;1.60;;;1.25;;
31836;SDS011;18401;49.344;6.240;2024-02-26T00:16:59;1.60;;;0.98;;
31836;SDS011;18401;49.344;6.240;2024-02-26T00:19:25;5.63;;;1.50;;
31836;SDS011;18401;49.344;6.240;2024-02-26T00:21:51;3.33;;;1.30;;
31836;SDS011;18401;49.344;6.240;2024-02-26T00:24:18;1.85;;;1.40;;
31836;SDS011;18401;49.344;6.240;2024-02-26T00:26:44;4.40;;;1.50;;
31836;SDS011;18401;49.344;6.240;2024-02-26T00:29:10;1.30;;;1.20;;
31836;SDS011;18401;49.344;6.240;2024-02-26T00:31:36;2.88;;;1.42;;
31836;SDS011;18401;49.344;6.240;2024-02-26T00:34:03;4.38;;;1.40;;
31836;SDS011;18401;49.344;6.240;2024-02-26T00:36:29;1.67;;;1.48;;
31836;SDS011;18401;49.344;6.240;2024-02-26T00:38:55;5.18;;;1.45;;
31836;SDS011;18401;49.344;6.240;2024-02-26T00:41:20;1.65;;;1.20;;
31836;SDS011;18401;49.344;6.240;2024-02-26T00:43:46;1.90;;;1.52;;
31836;SDS011;18401;49.344;6.240;2024-02-26T00:46:12;3.97;;;1.35;;
31836;SDS011;18401;49.344;6.240;2024-02-26T00:48:38;2.72;;;1.50;;
31836;SDS011;18401;49.344;6.240;2024-02-26T00:51:03;2.38;;;1.42;;
31836;SDS011;18401;49.344;6.240;2024-02-26T00:53:30;5.20;;;1.40;;
31836;SDS011;18401;49.344;6.240;2024-02-26T00:55:56;1.40;;;1.30;;
31836;SDS011;18401;49.344;6.240;2024-02-26T00:58:24;8.85;;;1.42;;
31836;SDS011;18401;49.344;6.240;2024-02-26T01:00:50;2.50;;;1.42;;
31836;SDS011;18401;49.344;6.240;2024-02-26T01:03:15;1.42;;;1.17;;
31836;SDS011;18401;49.344;6.240;2024-02-26T01:05:42;1.92;;;1.30;;
31836;SDS011;18401;49.344;6.240;2024-02-26T01:08:08;2.92;;;1.27;;
31836;SDS011;18401;49.344;6.240;2024-02-26T01:10:33;1.42;;;1.13;;
31836;SDS011;18401;49.344;6.240;2024-02-26T01:12:59;1.75;;;1.33;;
31836;SDS011;18401;49.344;6.240;2024-02-26T01:15:25;3.03;;;1.40;;
31836;SDS011;18401;49.344;6.240;2024-02-26T01:17:51;1.48;;;1.30;;
31836;SDS011;18401;49.344;6.240;2024-02-26T01:20:18;1.50;;;1.40;;
31836;SDS011;18401;49.344;6.240;2024-02-26T01:22:43;2.58;;;1.50;;
31836;SDS011;18401;49.344;6.240;2024-02-26T01:25:09;1.50;;;1.40;;
31836;SDS011;18401;49.344;6.240;2024-02-26T01:27:39;1.98;;;1.50;;
31836;SDS011;18401;49.344;6.240;2024-02-26T01:30:06;1.40;;;1.30;;
31836;SDS011;18401;49.344;6.240;2024-02-26T01:32:32;2.40;;;1.40;;
31836;SDS011;18401;49.344;6.240;2024-02-26T01:34:58;1.50;;;1.33;;
31836;SDS011;18401;49.344;6.240;2024-02-26T01:37:24;1.70;;;1.30;;
31836;SDS011;18401;49.344;6.240;2024-02-26T01:39:49;1.48;;;1.33;;
31836;SDS011;18401;49.344;6.240;2024-02-26T01:42:15;1.70;;;1.52;;
31836;SDS011;18401;49.344;6.240;2024-02-26T01:44:41;2.40;;;1.70;;
31836;SDS011;18401;49.344;6.240;2024-02-26T01:47:08;2.55;;;1.27;;
31836;SDS011;18401;49.344;6.240;2024-02-26T01:49:36;2.13;;;1.38;;
31836;SDS011;18401;49.344;6.240;2024-02-26T01:52:04;1.88;;;1.67;;
31836;SDS011;18401;49.344;6.240;2024-02-26T01:54:31;2.10;;;1.70;;
31836;SDS011;18401;49.344;6.240;2024-02-26T01:56:57;1.85;;;1.50;;
31836;SDS011;18401;49.344;6.240;2024-02-26T01:59:23;3.70;;;1.70;;
31836;SDS011;18401;49.344;6.240;2024-02-26T02:01:51;3.80;;;1.80;;
31836;SDS011;18401;49.344;6.240;2024-02-26T02:04:19;3.65;;;1.60;;
31836;SDS011;18401;49.344;6.240;2024-02-26T02:06:46;1.50;;;1.40;;
31836;SDS011;18401;49.344;6.240;2024-02-26T02:09:13;1.90;;;1.40;;
31836;SDS011;18401;49.344;6.240;2024-02-26T02:11:39;3.72;;;1.70;;
31836;SDS011;18401;49.344;6.240;2024-02-26T02:14:04;3.22;;;1.45;;
31836;SDS011;18401;49.344;6.240;2024-02-26T02:16:31;3.35;;;1.73;;
31836;SDS011;18401;49.344;6.240;2024-02-26T02:18:57;2.95;;;1.80;;
31836;SDS011;18401;49.344;6.240;2024-02-26T02:21:23;1.50;;;1.25;;
31836;SDS011;18401;49.344;6.240;2024-02-26T02:23:49;1.58;;;1.42;;
31836;SDS011;18401;49.344;6.240;2024-02-26T02:26:14;1.90;;;1.60;;
31836;SDS011;18401;49.344;6.240;2024-02-26T02:28:41;2.53;;;1.50;;
31836;SDS011;18401;49.344;6.240;2024-02-26T02:31:07;4.07;;;1.48;;
31836;SDS011;18401;49.344;6.240;2024-02-26T02:33:33;2.03;;;1.75;;
31836;SDS011;18401;49.344;6.240;2024-02-26T02:35:59;3.60;;;1.75;;
31836;SDS011;18401;49.344;6.240;2024-02-26T02:38:25;1.40;;;1.30;;
31836;SDS011;18401;49.344;6.240;2024-02-26T02:40:52;1.55;;;1.45;;
31836;SDS011;18401;49.344;6.240;2024-02-26T02:43:18;1.40;;;1.30;;
31836;SDS011;18401;49.344;6.240;2024-02-26T02:45:43;1.85;;;1.50;;
31836;SDS011;18401;49.344;6.240;2024-02-26T02:48:10;3.00;;;1.23;;
31836;SDS011;18401;49.344;6.240;2024-02-26T02:50:36;1.42;;;1.30;;
31836;SDS011;18401;49.344;6.240;2024-02-26T02:53:02;1.52;;;1.42;;
31836;SDS011;18401;49.344;6.240;2024-02-26T02:55:28;2.92;;;1.30;;
31836;SDS011;18401;49.344;6.240;2024-02-26T02:57:53;1.30;;;1.20;;
31836;SDS011;18401;49.344;6.240;2024-02-26T03:00:19;1.50;;;1.40;;
31836;SDS011;18401;49.344;6.240;2024-02-26T03:02:47;1.33;;;1.23;;
31836;SDS011;18401;49.344;6.240;2024-02-26T03:05:13;1.40;;;0.93;;
31836;SDS011;18401;49.344;6.240;2024-02-26T03:07:39;0.93;;;0.93;;
31836;SDS011;18401;49.344;6.240;2024-02-26T03:10:05;1.80;;;1.25;;
31836;SDS011;18401;49.344;6.240;2024-02-26T03:12:31;0.90;;;0.90;;
31836;SDS011;18401;49.344;6.240;2024-02-26T03:14:57;1.52;;;1.10;;
31836;SDS011;18401;49.344;6.240;2024-02-26T03:17:22;1.15;;;1.05;;
31836;SDS011;18401;49.344;6.240;2024-02-26T03:19:49;2.25;;;0.93;;
31836;SDS011;18401;49.344;6.240;2024-02-26T03:22:18;0.95;;;0.88;;
31836;SDS011;18401;49.344;6.240;2024-02-26T03:24:45;0.90;;;0.90;;
31836;SDS011;18401;49.344;6.240;2024-02-26T03:27:10;1.00;;;1.00;;
31836;SDS011;18401;49.344;6.240;2024-02-26T03:29:39;1.20;;;1.10;;
31836;SDS011;18401;49.344;6.240;2024-02-26T03:32:05;3.85;;;0.98;;
31836;SDS011;18401;49.344;6.240;2024-02-26T03:34:31;2.20;;;1.20;;
31836;SDS011;18401;49.344;6.240;2024-02-26T03:37:00;2.70;;;1.15;;
31836;SDS011;18401;49.344;6.240;2024-02-26T03:39:26;1.20;;;1.10;;
31836;SDS011;18401;49.344;6.240;2024-02-26T03:41:51;0.80;;;0.80;;
31836;SDS011;18401;49.344;6.240;2024-02-26T03:44:17;1.13;;;1.10;;
31836;SDS011;18401;49.344;6.240;2024-02-26T03:46:43;1.10;;;1.00;;
31836;SDS011;18401;49.344;6.240;2024-02-26T03:49:08;4.30;;;1.15;;
31836;SDS011;18401;49.344;6.240;2024-02-26T03:51:34;1.48;;;0.90;;
31836;SDS011;18401;49.344;6.240;2024-02-26T03:54:00;1.52;;;1.10;;
31836;SDS011;18401;49.344;6.240;2024-02-26T03:56:26;1.20;;;1.08;;
31836;SDS011;18401;49.344;6.240;2024-02-26T03:58:52;1.85;;;1.20;;
31836;SDS011;18401;49.344;6.240;2024-02-26T04:01:18;4.32;;;1.58;;
31836;SDS011;18401;49.344;6.240;2024-02-26T04:03:44;0.98;;;0.98;;
31836;SDS011;18401;49.344;6.240;2024-02-26T04:06:10;1.15;;;1.10;;
31836;SDS011;18401;49.344;6.240;2024-02-26T04:08:36;1.30;;;1.20;;
31836;SDS011;18401;49.344;6.240;2024-02-26T04:11:02;1.25;;;1.05;;
31836;SDS011;18401;49.344;6.240;2024-02-26T04:13:32;0.80;;;0.80;;
31836;SDS011;18401;49.344;6.240;2024-02-26T04:15:58;1.20;;;0.90;;
31836;SDS011;18401;49.344;6.240;2024-02-26T04:18:26;1.00;;;1.00;;
31836;SDS011;18401;49.344;6.240;2024-02-26T04:20:52;2.05;;;1.20;;
31836;SDS011;18401;49.344;6.240;2024-02-26T04:23:18;1.20;;;1.10;;
31836;SDS011;18401;49.344;6.240;2024-02-26T04:25:44;2.30;;;0.90;;
31836;SDS011;18401;49.344;6.240;2024-02-26T04:28:09;0.90;;;0.90;;
31836;SDS011;18401;49.344;6.240;2024-02-26T04:30:35;1.50;;;1.30;;
31836;SDS011;18401;49.344;6.240;2024-02-26T04:33:01;1.20;;;1.10;;
31836;SDS011;18401;49.344;6.240;2024-02-26T04:35:27;1.85;;;1.30;;
31836;SDS011;18401;49.344;6.240;2024-02-26T04:37:52;1.30;;;1.20;;
31836;SDS011;18401;49.344;6.240;2024-02-26T04:40:18;6.65;;;1.10;;
31836;SDS011;18401;49.344;6.240;2024-02-26T04:42:44;0.75;;;0.75;;
31836;SDS011;18401;49.344;6.240;2024-02-26T04:45:09;1.42;;;0.80;;
31836;SDS011;18401;49.344;6.240;2024-02-26T04:47:35;1.13;;;0.80;;
31836;SDS011;18401;49.344;6.240;2024-02-26T04:50:01;0.80;;;0.80;;
31836;SDS011;18401;49.344;6.240;2024-02-26T04:52:27;0.65;;;0.65;;
31836;SDS011;18401;49.344;6.240;2024-02-26T04:54:52;1.08;;;0.98;;
31836;SDS011;18401;49.344;6.240;2024-02-26T04:57:19;1.10;;;1.00;;
31836;SDS011;18401;49.344;6.240;2024-02-26T04:59:46;0.90;;;0.90;;
31836;SDS011;18401;49.344;6.240;2024-02-26T05:02:12;0.90;;;0.90;;
31836;SDS011;18401;49.344;6.240;2024-02-26T05:04:38;1.30;;;1.20;;
31836;SDS011;18401;49.344;6.240;2024-02-26T05:07:03;1.08;;;0.98;;
31836;SDS011;18401;49.344;6.240;2024-02-26T05:09:29;1.45;;;1.35;;
31836;SDS011;18401;49.344;6.240;2024-02-26T05:11:55;2.28;;;1.60;;
31836;SDS011;18401;49.344;6.240;2024-02-26T05:14:20;1.33;;;1.02;;
31836;SDS011;18401;49.344;6.240;2024-02-26T05:16:46;1.38;;;1.02;;
31836;SDS011;18401;49.344;6.240;2024-02-26T05:19:12;0.95;;;0.95;;
31836;SDS011;18401;49.344;6.240;2024-02-26T05:21:38;0.90;;;0.90;;
31836;SDS011;18401;49.344;6.240;2024-02-26T05:24:05;1.40;;;1.20;;
31836;SDS011;18401;49.344;6.240;2024-02-26T05:26:31;1.10;;;1.00;;
31836;SDS011;18401;49.344;6.240;2024-02-26T05:28:56;1.42;;;0.93;;
31836;SDS011;18401;49.344;6.240;2024-02-26T05:31:26;3.85;;;1.00;;
31836;SDS011;18401;49.344;6.240;2024-02-26T05:33:52;1.02;;;0.85;;
31836;SDS011;18401;49.344;6.240;2024-02-26T05:36:18;2.15;;;0.70;;
31836;SDS011;18401;49.344;6.240;2024-02-26T05:38:44;0.80;;;0.80;;
31836;SDS011;18401;49.344;6.240;2024-02-26T05:41:11;0.73;;;0.70;;
31836;SDS011;18401;49.344;6.240;2024-02-26T05:43:37;2.38;;;0.80;;
31836;SDS011;18401;49.344;6.240;2024-02-26T05:46:03;1.23;;;0.60;;
31836;SDS011;18401;49.344;6.240;2024-02-26T05:48:28;2.80;;;0.70;;
31836;SDS011;18401;49.344;6.240;2024-02-26T05:50:54;1.33;;;0.68;;
31836;SDS011;18401;49.344;6.240;2024-02-26T05:53:20;0.65;;;0.65;;
31836;SDS011;18401;49.344;6.240;2024-02-26T05:55:46;0.52;;;0.52;;
31836;SDS011;18401;49.344;6.240;2024-02-26T05:58:11;1.35;;;0.60;;
31836;SDS011;18401;49.344;6.240;2024-02-26T06:00:37;0.43;;;0.43;;
31836;SDS011;18401;49.344;6.240;2024-02-26T06:03:03;0.57;;;0.50;;
31836;SDS011;18401;49.344;6.240;2024-02-26T06:05:28;2.00;;;0.70;;
31836;SDS011;18401;49.344;6.240;2024-02-26T06:07:54;0.60;;;0.60;;
31836;SDS011;18401;49.344;6.240;2024-02-26T06:10:20;0.60;;;0.60;;
31836;SDS011;18401;49.344;6.240;2024-02-26T06:12:46;0.60;;;0.60;;
31836;SDS011;18401;49.344;6.240;2024-02-26T06:15:12;1.20;;;0.65;;
31836;SDS011;18401;49.344;6.240;2024-02-26T06:17:38;0.50;;;0.50;;
31836;SDS011;18401;49.344;6.240;2024-02-26T06:20:03;0.60;;;0.60;;
31836;SDS011;18401;49.344;6.240;2024-02-26T06:22:31;0.68;;;0.68;;
31836;SDS011;18401;49.344;6.240;2024-02-26T06:24:57;1.75;;;0.70;;
31836;SDS011;18401;49.344;6.240;2024-02-26T06:27:23;1.25;;;0.93;;
31836;SDS011;18401;49.344;6.240;2024-02-26T06:29:49;1.63;;;0.90;;
31836;SDS011;18401;49.344;6.240;2024-02-26T06:32:15;1.48;;;0.70;;
31836;SDS011;18401;49.344;6.240;2024-02-26T06:34:40;0.93;;;0.70;;
31836;SDS011;18401;49.344;6.240;2024-02-26T06:37:07;0.75;;;0.75;;
31836;SDS011;18401;49.344;6.240;2024-02-26T06:39:33;0.93;;;0.85;;
31836;SDS011;18401;49.344;6.240;2024-02-26T06:41:59;1.13;;;0.93;;
31836;SDS011;18401;49.344;6.240;2024-02-26T06:44:28;0.60;;;0.60;;
31836;SDS011;18401;49.344;6.240;2024-02-26T06:46:59;0.90;;;0.90;;
31836;SDS011;18401;49.344;6.240;2024-02-26T06:49:26;0.77;;;0.77;;
31836;SDS011;18401;49.344;6.240;2024-02-26T06:51:52;2.67;;;1.00;;
31836;SDS011;18401;49.344;6.240;2024-02-26T06:54:17;1.30;;;1.20;;
31836;SDS011;18401;49.344;6.240;2024-02-26T06:56:43;1.10;;;1.00;;
31836;SDS011;18401;49.344;6.240;2024-02-26T06:59:09;1.02;;;0.93;;
31836;SDS011;18401;49.344;6.240;2024-02-26T07:01:34;1.42;;;1.00;;
31836;SDS011;18401;49.344;6.240;2024-02-26T07:04:00;4.15;;;1.02;;
31836;SDS011;18401;49.344;6.240;2024-02-26T07:06:29;1.08;;;1.08;;
31836;SDS011;18401;49.344;6.240;2024-02-26T07:08:54;1.10;;;1.00;;
31836;SDS011;18401;49.344;6.240;2024-02-26T07:11:20;2.33;;;1.10;;
31836;SDS011;18401;49.344;6.240;2024-02-26T07:13:46;2.40;;;1.20;;
31836;SDS011;18401;49.344;6.240;2024-02-26T07:16:12;1.20;;;1.10;;
31836;SDS011;18401;49.344;6.240;2024-02-26T07:18:40;1.40;;;1.30;;
31836;SDS011;18401;49.344;6.240;2024-02-26T07:21:06;1.23;;;1.02;;
31836;SDS011;18401;49.344;6.240;2024-02-26T07:23:32;2.17;;;1.30;;
31836;SDS011;18401;49.344;6.240;2024-02-26T07:25:58;1.65;;;1.48;;
31836;SDS011;18401;49.344;6.240;2024-02-26T07:28:24;1.95;;;1.08;;
31836;SDS011;18401;49.344;6.240;2024-02-26T07:30:50;1.52;;;1.30;;
31836;SDS011;18401;49.344;6.240;2024-02-26T07:33:15;2.25;;;1.30;;
31836;SDS011;18401;49.344;6.240;2024-02-26T07:35:41;3.05;;;1.33;;
31836;SDS011;18401;49.344;6.240;2024-02-26T07:38:07;3.38;;;1.50;;
31836;SDS011;18401;49.344;6.240;2024-02-26T07:40:33;4.05;;;1.30;;
31836;SDS011;18401;49.344;6.240;2024-02-26T07:42:58;1.20;;;1.10;;
31836;SDS011;18401;49.344;6.240;2024-02-26T07:45:24;1.25;;;1.10;;
31836;SDS011;18401;49.344;6.240;2024-02-26T07:47:49;2.58;;;1.05;;
31836;SDS011;18401;49.344;6.240;2024-02-26T07:50:16;0.88;;;0.88;;
31836;SDS011;18401;49.344;6.240;2024-02-26T07:52:42;3.97;;;1.25;;
31836;SDS011;18401;49.344;6.240;2024-02-26T07:55:09;3.22;;;1.15;;
31836;SDS011;18401;49.344;6.240;2024-02-26T07:57:34;0.93;;;0.93;;
31836;SDS011;18401;49.344;6.240;2024-02-26T08:00:00;1.17;;;1.08;;
31836;SDS011;18401;49.344;6.240;2024-02-26T08:02:27;0.77;;;0.73;;
31836;SDS011;18401;49.344;6.240;2024-02-26T08:04:53;1.50;;;0.90;;
31836;SDS011;18401;49.344;6.240;2024-02-26T08:07:19;1.00;;;1.00;;
31836;SDS011;18401;49.344;6.240;2024-02-26T08:09:46;1.40;;;0.90;;
31836;SDS011;18401;49.344;6.240;2024-02-26T08:12:12;1.33;;;1.23;;
31836;SDS011;18401;49.344;6.240;2024-02-26T08:14:37;2.05;;;1.30;;
31836;SDS011;18401;49.344;6.240;2024-02-26T08:17:03;1.30;;;1.20;;
31836;SDS011;18401;49.344;6.240;2024-02-26T08:19:29;1.45;;;1.10;;
31836;SDS011;18401;49.344;6.240;2024-02-26T08:21:54;1.42;;;1.02;;
31836;SDS011;18401;49.344;6.240;2024-02-26T08:24:20;1.10;;;1.00;;
31836;SDS011;18401;49.344;6.240;2024-02-26T08:26:46;1.40;;;1.30;;
31836;SDS011;18401;49.344;6.240;2024-02-26T08:29:11;1.30;;;1.20;;
31836;SDS011;18401;49.344;6.240;2024-02-26T08:31:37;1.70;;;1.60;;
31836;SDS011;18401;49.344;6.240;2024-02-26T08:34:03;1.77;;;1.10;;
31836;SDS011;18401;49.344;6.240;2024-02-26T08:36:30;5.10;;;1.50;;
31836;SDS011;18401;49.344;6.240;2024-02-26T08:38:57;1.30;;;1.20;;
31836;SDS011;18401;49.344;6.240;2024-02-26T08:41:22;4.13;;;1.17;;
31836;SDS011;18401;49.344;6.240;2024-02-26T08:43:48;1.30;;;1.20;;
31836;SDS011;18401;49.344;6.240;2024-02-26T08:46:14;0.90;;;0.90;;
31836;SDS011;18401;49.344;6.240;2024-02-26T08:48:39;1.20;;;1.10;;
31836;SDS011;18401;49.344;6.240;2024-02-26T08:51:09;0.90;;;0.90;;
31836;SDS011;18401;49.344;6.240;2024-02-26T08:53:38;1.17;;;1.08;;
31836;SDS011;18401;49.344;6.240;2024-02-26T08:56:03;0.80;;;0.80;;
31836;SDS011;18401;49.344;6.240;2024-02-26T08:58:29;1.00;;;0.90;;
31836;SDS011;18401;49.344;6.240;2024-02-26T09:00:55;0.80;;;0.80;;
31836;SDS011;18401;49.344;6.240;2024-02-26T09:03:21;0.82;;;0.82;;
31836;SDS011;18401;49.344;6.240;2024-02-26T09:05:47;0.90;;;0.90;;
31836;SDS011;18401;49.344;6.240;2024-02-26T09:08:13;1.80;;;0.77;;
31836;SDS011;18401;49.344;6.240;2024-02-26T09:10:39;2.97;;;0.80;;
31836;SDS011;18401;49.344;6.240;2024-02-26T09:13:04;1.25;;;1.00;;
31836;SDS011;18401;49.344;6.240;2024-02-26T09:15:30;0.98;;;0.98;;
31836;SDS011;18401;49.344;6.240;2024-02-26T09:17:56;2.13;;;1.20;;
31836;SDS011;18401;49.344;6.240;2024-02-26T09:20:22;2.22;;;1.00;;
31836;SDS011;18401;49.344;6.240;2024-02-26T09:22:48;2.72;;;0.95;;
31836;SDS011;18401;49.344;6.240;2024-02-26T09:25:15;1.17;;;0.90;;
31836;SDS011;18401;49.344;6.240;2024-02-26T09:27:44;5.97;;;0.90;;
31836;SDS011;18401;49.344;6.240;2024-02-26T09:30:10;1.60;;;1.10;;
31836;SDS011;18401;49.344;6.240;2024-02-26T09:32:37;1.00;;;1.00;;
31836;SDS011;18401;49.344;6.240;2024-02-26T09:35:03;1.00;;;1.00;;
31836;SDS011;18401;49.344;6.240;2024-02-26T09:37:29;4.15;;;1.02;;
31836;SDS011;18401;49.344;6.240;2024-02-26T09:39:54;2.95;;;1.60;;
31836;SDS011;18401;49.344;6.240;2024-02-26T09:42:20;1.38;;;1.20;;
31836;SDS011;18401;49.344;6.240;2024-02-26T09:44:49;2.35;;;1.30;;
31836;SDS011;18401;49.344;6.240;2024-02-26T09:47:18;2.60;;;1.02;;
31836;SDS011;18401;49.344;6.240;2024-02-26T09:49:45;1.30;;;1.15;;
31836;SDS011;18401;49.344;6.240;2024-02-26T09:52:13;1.35;;;1.23;;
31836;SDS011;18401;49.344;6.240;2024-02-26T09:54:41;1.23;;;1.00;;
31836;SDS011;18401;49.344;6.240;2024-02-26T09:57:08;1.20;;;1.10;;
31836;SDS011;18401;49.344;6.240;2024-02-26T09:59:40;2.03;;;1.20;;
31836;SDS011;18401;49.344;6.240;2024-02-26T10:02:13;2.80;;;1.50;;
31836;SDS011;18401;49.344;6.240;2024-02-26T10:04:40;1.42;;;1.33;;
31836;SDS011;18401;49.344;6.240;2024-02-26T10:07:11;1.20;;;1.10;;
31836;SDS011;18401;49.344;6.240;2024-02-26T10:09:37;3.05;;;1.40;;
31836;SDS011;18401;49.344;6.240;2024-02-26T10:12:03;1.55;;;1.27;;
31836;SDS011;18401;49.344;6.240;2024-02-26T10:14:30;2.30;;;1.30;;
31836;SDS011;18401;49.344;6.240;2024-02-26T10:16:56;1.45;;;1.30;;
31836;SDS011;18401;49.344;6.240;2024-02-26T10:19:28;2.38;;;1.23;;
31836;SDS011;18401;49.344;6.240;2024-02-26T10:21:59;1.92;;;1.10;;
31836;SDS011;18401;49.344;6.240;2024-02-26T10:24:26;1.85;;;1.10;;
31836;SDS011;18401;49.344;6.240;2024-02-26T10:26:52;1.52;;;1.05;;
31836;SDS011;18401;49.344;6.240;2024-02-26T10:29:19;1.45;;;1.10;;
31836;SDS011;18401;49.344;6.240;2024-02-26T10:31:46;1.10;;;1.00;;
31836;SDS011;18401;49.344;6.240;2024-02-26T10:34:12;1.63;;;1.08;;
31836;SDS011;18401;49.344;6.240;2024-02-26T10:36:37;1.20;;;1.10;;
31836;SDS011;18401;49.344;6.240;2024-02-26T10:39:06;1.17;;;1.10;;
31836;SDS011;18401;49.344;6.240;2024-02-26T10:41:35;1.63;;;1.17;;
31836;SDS011;18401;49.344;6.240;2024-02-26T10:44:00;2.40;;;1.17;;
31836;SDS011;18401;49.344;6.240;2024-02-26T10:46:27;0.90;;;0.90;;
31836;SDS011;18401;49.344;6.240;2024-02-26T10:48:53;1.10;;;1.08;;
31836;SDS011;18401;49.344;6.240;2024-02-26T10:51:25;1.42;;;1.33;;
31836;SDS011;18401;49.344;6.240;2024-02-26T10:53:55;1.00;;;1.00;;
31836;SDS011;18401;49.344;6.240;2024-02-26T10:56:26;1.23;;;1.05;;
31836;SDS011;18401;49.344;6.240;2024-02-26T10:58:55;1.33;;;1.23;;
31836;SDS011;18401;49.344;6.240;2024-02-26T11:01:22;3.60;;;1.48;;
31836;SDS011;18401;49.344;6.240;2024-02-26T11:03:50;1.40;;;1.30;;
31836;SDS011;18401;49.344;6.240;2024-02-26T11:06:17;1.33;;;1.23;;
31836;SDS011;18401;49.344;6.240;2024-02-26T11:08:44;1.33;;;1.08;;
31836;SDS011;18401;49.344;6.240;2024-02-26T11:11:13;1.75;;;1.30;;
31836;SDS011;18401;49.344;6.240;2024-02-26T11:13:40;1.02;;;1.02;;
31836;SDS011;18401;49.344;6.240;2024-02-26T11:16:09;1.40;;;0.93;;
31836;SDS011;18401;49.344;6.240;2024-02-26T11:18:37;1.70;;;0.90;;
31836;SDS011;18401;49.344;6.240;2024-02-26T11:21:04;2.83;;;0.75;;
31836;SDS011;18401;49.344;6.240;2024-02-26T11:23:33;0.90;;;0.90;;
31836;SDS011;18401;49.344;6.240;2024-02-26T11:26:01;2.20;;;1.20;;
31836;SDS011;18401;49.344;6.240;2024-02-26T11:28:30;0.82;;;0.82;;
31836;SDS011;18401;49.344;6.240;2024-02-26T11:30:58;1.13;;;0.80;;
31836;SDS011;18401;49.344;6.240;2024-02-26T11:33:25;1.38;;;1.25;;
31836;SDS011;18401;49.344;6.240;2024-02-26T11:35:53;2.58;;;1.38;;
31836;SDS011;18401;49.344;6.240;2024-02-26T11:38:20;1.20;;;1.10;;
31836;SDS011;18401;49.344;6.240;2024-02-26T11:40:46;2.22;;;1.00;;
31836;SDS011;18401;49.344;6.240;2024-02-26T11:43:13;0.98;;;0.90;;
31836;SDS011;18401;49.344;6.240;2024-02-26T11:48:10;2.92;;;1.13;;
31836;SDS011;18401;49.344;6.240;2024-02-26T11:50:47;1.40;;;1.30;;
31836;SDS011;18401;49.344;6.240;2024-02-26T11:55:45;0.88;;;0.80;;
31836;SDS011;18401;49.344;6.240;2024-02-26T11:58:11;2.05;;;1.27;;
31836;SDS011;18401;49.344;6.240;2024-02-26T12:00:37;0.68;;;0.68;;
31836;SDS011;18401;49.344;6.240;2024-02-26T12:03:05;1.15;;;1.00;;
31836;SDS011;18401;49.344;6.240;2024-02-26T12:05:33;0.70;;;0.70;;
31836;SDS011;18401;49.344;6.240;2024-02-26T12:08:04;3.63;;;0.88;;
31836;SDS011;18401;49.344;6.240;2024-02-26T12:10:33;1.35;;;1.00;;
31836;SDS011;18401;49.344;6.240;2024-02-26T12:13:10;0.70;;;0.70;;
31836;SDS011;18401;49.344;6.240;2024-02-26T12:15:38;1.88;;;0.73;;
31836;SDS011;18401;49.344;6.240;2024-02-26T12:18:06;0.70;;;0.70;;
31836;SDS011;18401;49.344;6.240;2024-02-26T12:20:34;1.20;;;0.85;;
31836;SDS011;18401;49.344;6.240;2024-02-26T12:23:00;1.35;;;0.60;;
31836;SDS011;18401;49.344;6.240;2024-02-26T12:25:28;1.60;;;0.73;;
31836;SDS011;18401;49.344;6.240;2024-02-26T12:27:54;3.95;;;0.55;;
31836;SDS011;18401;49.344;6.240;2024-02-26T12:30:21;0.68;;;0.60;;
31836;SDS011;18401;49.344;6.240;2024-02-26T12:32:48;0.70;;;0.70;;
31836;SDS011;18401;49.344;6.240;2024-02-26T12:35:15;1.27;;;1.05;;
31836;SDS011;18401;49.344;6.240;2024-02-26T12:37:41;0.98;;;0.90;;
31836;SDS011;18401;49.344;6.240;2024-02-26T12:40:08;1.50;;;1.00;;
31836;SDS011;18401;49.344;6.240;2024-02-26T12:42:35;0.75;;;0.60;;
31836;SDS011;18401;49.344;6.240;2024-02-26T12:45:11;0.93;;;0.80;;
31836;SDS011;18401;49.344;6.240;2024-02-26T12:47:41;1.90;;;0.60;;
31836;SDS011;18401;49.344;6.240;2024-02-26T12:50:08;0.95;;;0.90;;
31836;SDS011;18401;49.344;6.240;2024-02-26T12:52:36;3.55;;;0.80;;
31836;SDS011;18401;49.344;6.240;2024-02-26T12:55:04;0.65;;;0.60;;
31836;SDS011;18401;49.344;6.240;2024-02-26T12:57:34;0.65;;;0.60;;
31836;SDS011;18401;49.344;6.240;2024-02-26T13:00:06;2.10;;;0.57;;
31836;SDS011;18401;49.344;6.240;2024-02-26T13:02:34;0.60;;;0.60;;
31836;SDS011;18401;49.344;6.240;2024-02-26T13:05:03;0.88;;;0.47;;
31836;SDS011;18401;49.344;6.240;2024-02-26T13:07:30;2.75;;;0.70;;
31836;SDS011;18401;49.344;6.240;2024-02-26T13:09:56;0.60;;;0.60;;
31836;SDS011;18401;49.344;6.240;2024-02-26T13:12:22;0.90;;;0.70;;
31836;SDS011;18401;49.344;6.240;2024-02-26T13:14:57;0.40;;;0.40;;
31836;SDS011;18401;49.344;6.240;2024-02-26T13:17:27;0.60;;;0.52;;
31836;SDS011;18401;49.344;6.240;2024-02-26T13:19:56;0.30;;;0.20;;
31836;SDS011;18401;49.344;6.240;2024-02-26T13:22:21;0.70;;;0.35;;
31836;SDS011;18401;49.344;6.240;2024-02-26T13:24:54;0.30;;;0.30;;
31836;SDS011;18401;49.344;6.240;2024-02-26T13:27:23;0.35;;;0.30;;
31836;SDS011;18401;49.344;6.240;2024-02-26T13:30:05;0.40;;;0.40;;
31836;SDS011;18401;49.344;6.240;2024-02-26T13:32:35;0.30;;;0.30;;
31836;SDS011;18401;49.344;6.240;2024-02-26T13:37:35;0.35;;;0.30;;
31836;SDS011;18401;49.344;6.240;2024-02-26T13:40:04;0.73;;;0.60;;
31836;SDS011;18401;49.344;6.240;2024-02-26T13:42:31;0.60;;;0.55;;
31836;SDS011;18401;49.344;6.240;2024-02-26T13:44:56;0.40;;;0.40;;
31836;SDS011;18401;49.344;6.240;2024-02-26T13:47:22;1.45;;;0.43;;
31836;SDS011;18401;49.344;6.240;2024-02-26T13:49:48;2.67;;;0.50;;
31836;SDS011;18401;49.344;6.240;2024-02-26T13:52:13;0.63;;;0.50;;
31836;SDS011;18401;49.344;6.240;2024-02-26T13:54:39;1.13;;;0.63;;
31836;SDS011;18401;49.344;6.240;2024-02-26T13:57:05;4.63;;;0.77;;
31836;SDS011;18401;49.344;6.240;2024-02-26T13:59:31;0.75;;;0.60;;
31836;SDS011;18401;49.344;6.240;2024-02-26T14:01:57;0.68;;;0.60;;
31836;SDS011;18401;49.344;6.240;2024-02-26T14:04:23;0.60;;;0.60;;
31836;SDS011;18401;49.344;6.240;2024-02-26T14:06:48;0.50;;;0.50;;
31836;SDS011;18401;49.344;6.240;2024-02-26T14:09:14;0.70;;;0.60;;
31836;SDS011;18401;49.344;6.240;2024-02-26T14:11:46;1.55;;;0.80;;
31836;SDS011;18401;49.344;6.240;2024-02-26T14:14:11;1.15;;;0.80;;
31836;SDS011;18401;49.344;6.240;2024-02-26T14:16:37;3.58;;;0.90;;
31836;SDS011;18401;49.344;6.240;2024-02-26T14:19:03;1.60;;;0.90;;
31836;SDS011;18401;49.344;6.240;2024-02-26T14:21:28;1.88;;;1.00;;
31836;SDS011;18401;49.344;6.240;2024-02-26T14:23:57;0.63;;;0.60;;
31836;SDS011;18401;49.344;6.240;2024-02-26T14:26:23;1.90;;;0.70;;
31836;SDS011;18401;49.344;6.240;2024-02-26T14:28:48;0.90;;;0.80;;
31836;SDS011;18401;49.344;6.240;2024-02-26T14:31:17;1.58;;;1.08;;
31836;SDS011;18401;49.344;6.240;2024-02-26T14:33:43;0.85;;;0.73;;
31836;SDS011;18401;49.344;6.240;2024-02-26T14:36:09;0.93;;;0.70;;
31836;SDS011;18401;49.344;6.240;2024-02-26T14:38:36;1.05;;;0.70;;
31836;SDS011;18401;49.344;6.240;2024-02-26T14:41:02;1.02;;;0.70;;
31836;SDS011;18401;49.344;6.240;2024-02-26T14:43:28;3.17;;;0.98;;
31836;SDS011;18401;49.344;6.240;2024-02-26T14:45:54;1.60;;;0.77;;
31836;SDS011;18401;49.344;6.240;2024-02-26T14:48:20;0.93;;;0.90;;
31836;SDS011;18401;49.344;6.240;2024-02-26T14:50:46;1.80;;;1.30;;
31836;SDS011;18401;49.344;6.240;2024-02-26T14:53:12;0.82;;;0.73;;